Time;durP1;ratioP1;P1;durP2;ratioP2;P2;SDS_P1;SDS_P2;PMS_P1;PMS_P2;Temp;Humidity;BMP_temperature;BMP_pressure;BME280_temperature;BME280_humidity;BME280_pressure;Samples;Min_cycle;Max_cycle;Signal;HPM_P1;HPM_P2
2023/10/01 00:00:05;;;;;;;18.95;14.38;;;19.70;59.90;;;;;;5053894;28;20373;-60
2023/10/01 00:02:32;;;;;;;20.17;14.57;;;19.70;60.00;;;;;;5053989;28;20495;-60
2023/10/01 00:04:59;;;;;;;20.88;14.85;;;19.60;60.00;;;;;;5053770;28;20025;-60
2023/10/01 00:07:26;;;;;;;16.95;14.85;;;19.60;60.10;;;;;;5053580;28;20486;-60
2023/10/01 00:09:52;;;;;;;20.55;14.77;;;19.60;60.20;;;;;;5053331;28;20060;-60
2023/10/01 00:12:18;;;;;;;19.70;14.82;;;19.60;60.00;;;;;;5053474;28;20374;-60
2023/10/01 00:14:44;;;;;;;22.80;14.45;;;19.60;60.20;;;;;;5053493;28;20076;-60
2023/10/01 00:17:09;;;;;;;17.92;14.73;;;19.50;60.50;;;;;;5053845;28;20036;-59
2023/10/01 00:19:37;;;;;;;16.98;14.25;;;19.50;60.70;;;;;;5053319;28;20028;-60
2023/10/01 00:22:02;;;;;;;20.55;14.75;;;19.40;60.80;;;;;;5053608;28;20029;-60
2023/10/01 00:24:29;;;;;;;19.70;14.48;;;19.40;60.90;;;;;;5053413;28;20033;-60
2023/10/01 00:26:54;;;;;;;16.73;13.07;;;19.30;61.00;;;;;;5053478;28;20438;-60
2023/10/01 00:29:22;;;;;;;17.52;13.70;;;19.30;61.20;;;;;;5053459;28;20039;-60
2023/10/01 00:31:49;;;;;;;18.48;14.68;;;19.30;61.40;;;;;;5053403;28;20033;-58
2023/10/01 00:34:15;;;;;;;20.83;15.50;;;19.30;61.40;;;;;;5053139;28;20045;-60
2023/10/01 00:36:43;;;;;;;18.67;14.25;;;19.30;61.50;;;;;;5052766;28;20032;-60
2023/10/01 00:39:09;;;;;;;19.90;15.07;;;19.30;61.60;;;;;;5053178;28;20025;-60
2023/10/01 00:41:35;;;;;;;18.13;14.50;;;19.30;62.00;;;;;;5053329;28;20506;-60
2023/10/01 00:44:04;;;;;;;20.25;14.40;;;19.30;62.10;;;;;;5053492;28;20104;-60
2023/10/01 00:46:31;;;;;;;16.42;14.40;;;19.40;62.30;;;;;;5053162;28;20587;-60
2023/10/01 00:49:00;;;;;;;18.02;14.85;;;19.30;62.20;;;;;;5053064;28;20048;-59
2023/10/01 00:51:26;;;;;;;16.30;13.48;;;19.30;62.20;;;;;;5052999;28;20411;-60
2023/10/01 00:53:52;;;;;;;17.30;13.75;;;19.30;62.20;;;;;;5052718;28;20150;-60
2023/10/01 00:56:20;;;;;;;20.10;15.23;;;19.30;61.70;;;;;;5052864;28;20029;-59
2023/10/01 00:58:46;;;;;;;19.05;14.52;;;19.30;61.40;;;;;;5052829;28;20025;-60
2023/10/01 01:01:12;;;;;;;17.00;13.75;;;19.40;61.60;;;;;;5052551;28;20032;-60
2023/10/01 01:03:38;;;;;;;19.63;14.13;;;19.40;61.40;;;;;;5052797;28;20083;-58
2023/10/01 01:08:46;;;;;;;22.90;13.20;;;19.40;61.80;;;;;;5052641;28;20116;-60
2023/10/01 01:11:15;;;;;;;19.40;13.48;;;19.40;61.90;;;;;;5052238;28;20053;-60
2023/10/01 01:13:41;;;;;;;18.92;13.45;;;19.40;62.10;;;;;;5052584;28;20029;-60
2023/10/01 01:16:07;;;;;;;16.10;12.98;;;19.40;61.90;;;;;;5052590;28;20024;-60
2023/10/01 01:18:36;;;;;;;17.10;13.65;;;19.40;62.00;;;;;;5052156;28;20029;-60
2023/10/01 01:21:09;;;;;;;14.95;12.48;;;19.40;62.10;;;;;;5052156;28;20082;-60
2023/10/01 01:23:35;;;;;;;15.18;12.32;;;19.40;62.30;;;;;;5052449;28;20453;-60
2023/10/01 01:26:02;;;;;;;16.38;12.57;;;19.30;62.10;;;;;;5052004;28;20489;-60
2023/10/01 01:28:30;;;;;;;14.70;12.40;;;19.40;62.00;;;;;;5052366;28;20063;-60
2023/10/01 01:31:00;;;;;;;15.38;12.38;;;19.30;61.80;;;;;;5052102;28;20064;-60
2023/10/01 01:33:32;;;;;;;17.77;12.38;;;19.30;61.80;;;;;;5052321;28;20025;-60
2023/10/01 01:35:58;;;;;;;16.60;12.35;;;19.30;62.00;;;;;;5051985;28;20029;-60
2023/10/01 01:38:24;;;;;;;15.13;12.25;;;19.30;62.00;;;;;;5051799;28;20017;-60
2023/10/01 01:40:52;;;;;;;13.20;11.80;;;19.30;62.10;;;;;;5052131;28;20535;-60
2023/10/01 01:43:22;;;;;;;15.00;11.93;;;19.30;62.20;;;;;;5052089;28;20049;-60
2023/10/01 01:45:55;;;;;;;13.77;12.15;;;19.30;62.50;;;;;;5051844;28;20027;-60
2023/10/01 01:48:24;;;;;;;14.98;11.52;;;19.20;62.50;;;;;;5051275;28;20116;-60
2023/10/01 01:50:54;;;;;;;17.13;11.70;;;19.20;62.50;;;;;;5052041;28;20037;-60
2023/10/01 01:53:21;;;;;;;14.30;11.05;;;19.20;62.60;;;;;;5052066;28;20020;-60
2023/10/01 01:55:50;;;;;;;14.02;10.75;;;19.20;62.60;;;;;;5051584;28;20017;-60
2023/10/01 01:58:23;;;;;;;14.43;11.23;;;19.20;62.60;;;;;;5051728;28;20428;-60
2023/10/01 02:01:08;;;;;;;14.80;11.10;;;19.30;62.50;;;;;;5051635;28;20504;-60
2023/10/01 02:03:39;;;;;;;13.32;10.77;;;19.30;62.50;;;;;;5051647;28;20443;-60
2023/10/01 02:06:06;;;;;;;18.65;12.30;;;19.30;62.40;;;;;;5051265;28;20057;-60
2023/10/01 02:08:54;;;;;;;12.85;10.75;;;19.20;62.30;;;;;;5051626;28;20060;-59
2023/10/01 02:11:20;;;;;;;13.73;10.98;;;19.30;62.20;;;;;;5051219;28;20480;-60
2023/10/01 02:13:54;;;;;;;15.00;11.13;;;19.20;61.00;;;;;;5051294;28;20078;-60
2023/10/01 02:18:58;;;;;;;13.90;10.77;;;19.30;60.90;;;;;;5051345;28;20483;-59
2023/10/01 02:24:14;;;;;;;13.82;9.75;;;19.30;59.80;;;;;;5051574;28;20086;-60
2023/10/01 02:26:46;;;;;;;11.73;9.98;;;19.30;59.50;;;;;;5051430;28;20032;-60
2023/10/01 02:29:13;;;;;;;14.35;10.13;;;19.30;59.20;;;;;;5051469;28;20036;-60
2023/10/01 02:32:04;;;;;;;15.68;11.00;;;19.40;59.10;;;;;;5051195;28;20059;-60
2023/10/01 02:34:29;;;;;;;13.05;10.40;;;19.40;59.00;;;;;;5050780;28;20033;-59
2023/10/01 02:36:55;;;;;;;16.27;11.00;;;19.40;58.90;;;;;;5051321;28;20033;-60
2023/10/01 02:39:28;;;;;;;15.02;10.25;;;19.40;58.80;;;;;;5051247;28;20393;-60
2023/10/01 02:44:33;;;;;;;15.25;11.07;;;19.50;58.50;;;;;;5051352;28;20086;-60
2023/10/01 02:47:09;;;;;;;14.70;10.52;;;19.40;58.50;;;;;;5050871;28;20025;-60
2023/10/01 02:49:39;;;;;;;14.48;11.05;;;19.40;58.30;;;;;;5051163;28;20029;-57
2023/10/01 02:52:07;;;;;;;13.02;10.65;;;19.40;58.40;;;;;;5051177;28;20473;-59
2023/10/01 02:54:37;;;;;;;15.07;10.48;;;19.40;58.30;;;;;;5051345;28;20040;-60
2023/10/01 02:57:23;;;;;;;14.70;12.40;;;19.40;58.30;;;;;;5051146;28;20486;-60
2023/10/01 03:02:41;;;;;;;16.67;12.45;;;19.30;59.60;;;;;;5055032;28;20036;-60
2023/10/01 03:05:16;;;;;;;17.35;13.13;;;19.20;59.70;;;;;;5055286;28;20104;-60
2023/10/01 03:07:45;;;;;;;19.92;13.07;;;19.20;59.70;;;;;;5055022;28;20473;-60
2023/10/01 03:10:27;;;;;;;17.05;12.45;;;19.10;59.80;;;;;;5054868;28;20124;-60
2023/10/01 03:13:17;;;;;;;16.45;12.77;;;19.00;60.00;;;;;;5054846;28;20025;-60
2023/10/01 03:16:39;;;;;;;13.97;11.87;;;19.00;60.00;;;;;;5054590;28;20027;-60
2023/10/01 03:18:34;;;;;;;14.80;12.20;;;18.90;60.40;;;;;;5054378;28;20037;-59
2023/10/01 03:21:07;;;;;;;14.75;12.00;;;18.80;60.50;;;;;;5054768;28;20044;-58
2023/10/01 03:23:33;;;;;;;20.20;13.82;;;18.80;60.60;;;;;;5054616;28;20099;-60
2023/10/01 03:26:07;;;;;;;18.60;13.13;;;18.70;60.80;;;;;;5054690;28;20495;-60
2023/10/01 03:31:23;;;;;;;17.88;12.07;;;18.70;61.20;;;;;;5054543;28;20111;-60
2023/10/01 03:33:54;;;;;;;16.15;12.57;;;18.60;61.00;;;;;;5054198;28;20033;-60
2023/10/01 03:36:28;;;;;;;17.52;12.88;;;18.60;60.80;;;;;;5054410;28;20097;-60
2023/10/01 03:38:59;;;;;;;17.48;12.85;;;18.60;60.60;;;;;;5054488;28;20495;-60
2023/10/01 03:41:27;;;;;;;16.23;12.00;;;18.50;60.50;;;;;;5054346;28;20052;-60
2023/10/01 03:44:08;;;;;;;15.95;12.27;;;18.50;60.50;;;;;;5054261;28;20400;-60
2023/10/01 03:46:42;;;;;;;15.20;12.00;;;18.50;60.30;;;;;;5054270;28;20037;-60
2023/10/01 03:51:52;;;;;;;15.20;11.30;;;18.50;60.20;;;;;;5053918;28;20511;-60
2023/10/01 03:55:15;;;;;;;17.52;12.07;;;18.50;60.20;;;;;;5054225;28;20029;-60
2023/10/01 03:57:16;;;;;;;16.27;12.68;;;18.50;60.00;;;;;;5053331;28;20061;-60
2023/10/01 03:59:57;;;;;;;15.77;12.50;;;18.50;60.20;;;;;;5054079;28;20032;-60
2023/10/01 04:05:31;;;;;;;16.65;12.43;;;18.50;60.10;;;;;;5054070;28;20404;-60
2023/10/01 04:08:00;;;;;;;14.73;11.82;;;18.50;60.20;;;;;;5053811;28;20041;-60
2023/10/01 04:12:54;;;;;;;17.23;13.27;;;18.50;60.60;;;;;;5052538;28;20510;-59
2023/10/01 04:15:27;;;;;;;16.08;12.88;;;18.50;60.70;;;;;;5053593;28;20104;-60
2023/10/01 04:20:36;;;;;;;19.00;13.07;;;18.50;60.30;;;;;;5053698;28;20040;-59
2023/10/01 04:23:05;;;;;;;20.67;13.80;;;18.50;60.30;;;;;;5053313;28;20028;-60
2023/10/01 04:25:36;;;;;;;18.38;12.52;;;18.50;60.40;;;;;;5053289;28;20392;-60
2023/10/01 04:28:05;;;;;;;;;;;18.60;60.70;;;;;;5053939;28;20028;-60
2023/10/01 04:30:34;;;;;;;17.88;12.60;;;18.50;60.90;;;;;;5053431;28;19904;-60
2023/10/01 04:33:16;;;;;;;14.68;12.57;;;18.50;60.80;;;;;;5053355;28;20061;-60
2023/10/01 04:35:51;;;;;;;19.30;13.60;;;18.50;60.80;;;;;;5053594;28;20165;-60
2023/10/01 04:38:28;;;;;;;17.67;13.20;;;18.60;60.60;;;;;;5052871;28;20032;-58
2023/10/01 04:40:54;;;;;;;20.55;13.15;;;18.60;60.30;;;;;;5053419;28;20442;-60
2023/10/01 04:43:20;;;;;;;19.90;13.88;;;18.60;60.20;;;;;;5052890;28;20078;-60
2023/10/01 04:45:47;;;;;;;21.23;13.95;;;18.70;60.10;;;;;;5052956;28;20025;-60
2023/10/01 04:48:22;;;;;;;20.70;14.30;;;18.70;60.00;;;;;;5052119;28;20059;-60
2023/10/01 04:50:50;;;;;;;19.08;15.15;;;18.80;60.00;;;;;;5053072;28;20067;-59
2023/10/01 04:53:19;;;;;;;19.90;14.38;;;18.80;59.80;;;;;;5052366;28;20033;-60
2023/10/01 04:55:57;;;;;;;19.15;14.15;;;18.80;59.60;;;;;;5051065;28;20018;-60
2023/10/01 04:58:24;;;;;;;21.48;13.43;;;18.90;60.00;;;;;;5050962;28;20029;-60
2023/10/01 05:00:50;;;;;;;21.60;15.52;;;19.00;59.70;;;;;;5050964;28;20689;-60
2023/10/01 05:03:16;;;;;;;19.08;14.68;;;19.10;59.50;;;;;;5050612;28;20025;-60
2023/10/01 05:05:48;;;;;;;20.48;13.63;;;19.20;59.40;;;;;;5051800;28;20358;-60
2023/10/01 05:08:14;;;;;;;16.75;12.98;;;19.30;59.20;;;;;;5051714;28;20096;-60
2023/10/01 05:10:52;;;;;;;18.10;13.38;;;19.40;59.00;;;;;;5052231;28;20049;-60
2023/10/01 05:13:22;;;;;;;18.77;12.95;;;19.50;58.70;;;;;;5052491;28;20080;-60
2023/10/01 05:15:56;;;;;;;15.20;12.15;;;19.50;58.60;;;;;;5052299;28;20021;-57
2023/10/01 05:18:26;;;;;;;22.08;12.90;;;19.50;58.50;;;;;;5052528;28;20036;-60
2023/10/01 05:21:04;;;;;;;15.07;12.07;;;19.60;58.30;;;;;;5052583;28;20017;-60
2023/10/01 05:23:30;;;;;;;16.90;12.32;;;19.60;58.00;;;;;;5052075;28;20493;-59
2023/10/01 05:25:56;;;;;;;17.10;12.25;;;19.70;57.80;;;;;;5052148;28;20021;-60
2023/10/01 05:28:31;;;;;;;17.48;12.30;;;19.70;57.60;;;;;;5052192;28;20025;-57
2023/10/01 05:31:05;;;;;;;15.07;12.32;;;19.70;57.60;;;;;;5052089;28;20021;-60
2023/10/01 05:33:33;;;;;;;16.67;11.98;;;19.80;57.50;;;;;;5052013;28;20028;-59
2023/10/01 05:36:04;;;;;;;15.73;11.80;;;19.90;57.40;;;;;;5052214;28;20041;-60
2023/10/01 05:38:33;;;;;;;19.05;12.15;;;19.90;57.10;;;;;;5052290;28;20021;-60
2023/10/01 05:41:03;;;;;;;15.93;11.80;;;20.00;56.90;;;;;;5051853;28;20041;-59
2023/10/01 05:43:37;;;;;;;16.95;11.40;;;20.00;56.70;;;;;;5052106;28;20024;-60
2023/10/01 05:46:08;;;;;;;14.30;10.95;;;20.00;56.60;;;;;;5052017;28;20033;-60
2023/10/01 05:48:35;;;;;;;19.60;12.07;;;20.00;56.60;;;;;;5051938;28;20017;-60
2023/10/01 05:51:02;;;;;;;16.63;11.93;;;20.10;56.50;;;;;;5051644;28;20033;-60
2023/10/01 05:53:30;;;;;;;17.73;11.75;;;20.10;56.40;;;;;;5051870;28;20048;-60
2023/10/01 05:56:06;;;;;;;15.65;12.02;;;20.20;56.30;;;;;;5051943;28;20028;-60
2023/10/01 05:58:33;;;;;;;15.40;11.75;;;20.30;56.20;;;;;;5051665;28;20025;-60
2023/10/01 06:01:05;;;;;;;17.77;11.38;;;20.30;56.20;;;;;;5051495;28;20078;-60
2023/10/01 06:03:32;;;;;;;13.93;11.40;;;20.40;56.20;;;;;;5051468;28;20032;-60
2023/10/01 06:05:58;;;;;;;12.20;10.45;;;20.50;56.40;;;;;;5051618;28;20472;-59
2023/10/01 06:08:45;;;;;;;14.98;10.20;;;20.60;56.30;;;;;;5051320;28;20025;-60
2023/10/01 06:11:15;;;;;;;15.48;10.95;;;20.80;56.10;;;;;;5051182;28;20072;-60
2023/10/01 06:13:49;;;;;;;17.85;13.18;;;21.00;55.60;;;;;;5051581;28;20035;-60
2023/10/01 06:16:16;;;;;;;13.75;10.60;;;21.10;55.20;;;;;;5050499;28;20388;-59
2023/10/01 06:18:52;;;;;;;14.07;10.40;;;21.20;55.10;;;;;;5051416;28;20021;-60
2023/10/01 06:21:19;;;;;;;16.08;10.90;;;21.20;55.00;;;;;;5051332;28;20480;-60
2023/10/01 06:23:51;;;;;;;12.75;10.00;;;21.20;55.20;;;;;;5050983;28;20036;-58
2023/10/01 06:26:22;;;;;;;14.65;10.30;;;21.20;55.00;;;;;;5051396;28;20029;-60
2023/10/01 06:28:51;;;;;;;14.25;10.02;;;21.20;54.80;;;;;;5051362;28;20103;-60
2023/10/01 06:31:17;;;;;;;16.15;11.13;;;21.20;54.80;;;;;;5051389;28;20033;-60
2023/10/01 06:33:46;;;;;;;15.88;11.38;;;21.20;55.00;;;;;;5051532;28;20017;-60
2023/10/01 06:36:15;;;;;;;19.90;10.40;;;21.30;54.70;;;;;;5050603;28;20377;-60
2023/10/01 06:38:44;;;;;;;16.05;10.45;;;21.30;54.50;;;;;;5051266;28;20047;-60
2023/10/01 06:41:25;;;;;;;17.08;11.13;;;21.30;54.60;;;;;;5051258;28;20095;-60
2023/10/01 06:43:56;;;;;;;18.80;11.95;;;21.40;54.80;;;;;;5051298;28;20025;-60
2023/10/01 06:46:24;;;;;;;16.33;10.98;;;21.30;54.90;;;;;;5051213;28;20032;-60
2023/10/01 06:48:51;;;;;;;16.17;10.80;;;21.40;54.90;;;;;;5051168;28;20033;-60
2023/10/01 06:51:21;;;;;;;15.40;11.13;;;21.50;55.00;;;;;;5051129;28;20025;-60
2023/10/01 06:53:48;;;;;;;17.30;10.35;;;21.50;54.80;;;;;;5051104;28;20026;-60
2023/10/01 06:56:19;;;;;;;16.15;11.18;;;21.50;54.70;;;;;;5051097;28;20469;-60
2023/10/01 07:01:56;;;;;;;15.43;10.65;;;21.60;54.60;;;;;;5051008;28;20403;-59
2023/10/01 07:04:31;;;;;;;15.98;10.32;;;21.70;54.60;;;;;;5051052;28;20039;-60
2023/10/01 07:06:57;;;;;;;15.68;10.65;;;21.70;54.60;;;;;;5051115;28;20421;-60
2023/10/01 07:09:32;;;;;;;14.35;10.60;;;21.70;54.50;;;;;;5050714;28;20040;-60
2023/10/01 07:12:02;;;;;;;13.27;9.82;;;21.80;54.40;;;;;;5050997;28;20469;-61
2023/10/01 07:14:43;;;;;;;14.45;10.23;;;21.80;54.30;;;;;;5051016;28;20100;-61
2023/10/01 07:17:15;;;;;;;;;;;21.80;54.20;;;;;;5051513;28;20067;-60
2023/10/01 07:19:42;;;;;;;13.40;9.50;;;21.80;54.40;;;;;;5051014;28;19913;-60
2023/10/01 07:22:09;;;;;;;13.82;9.65;;;21.80;54.20;;;;;;5050812;28;20029;-60
2023/10/01 07:24:38;;;;;;;12.15;9.80;;;21.90;54.10;;;;;;5050790;28;20025;-61
2023/10/01 07:27:05;;;;;;;15.40;10.27;;;21.90;53.90;;;;;;5050748;28;20025;-60
2023/10/01 07:29:33;;;;;;;15.90;10.50;;;21.90;53.90;;;;;;5050753;28;20138;-60
2023/10/01 07:32:06;;;;;;;14.15;10.52;;;22.00;54.00;;;;;;5050563;28;20025;-60
2023/10/01 07:34:32;;;;;;;13.75;10.15;;;22.00;54.10;;;;;;5050495;28;20060;-59
2023/10/01 07:36:59;;;;;;;15.38;11.35;;;22.00;54.10;;;;;;5050653;28;20496;-60
2023/10/01 07:39:30;;;;;;;14.60;10.85;;;22.00;54.20;;;;;;5050767;28;20040;-60
2023/10/01 07:41:59;;;;;;;18.42;10.63;;;22.10;54.20;;;;;;5050721;28;20481;-60
2023/10/01 07:44:24;;;;;;;20.88;10.98;;;22.10;54.30;;;;;;5050779;28;20053;-60
2023/10/01 07:46:51;;;;;;;12.70;10.70;;;22.10;54.90;;;;;;5051373;28;20021;-60
2023/10/01 07:49:18;;;;;;;12.07;10.07;;;22.10;55.50;;;;;;5054276;28;20110;-60
2023/10/01 07:51:48;;;;;;;15.30;11.40;;;22.20;56.10;;;;;;5054116;28;20067;-60
2023/10/01 07:54:22;;;;;;;13.15;10.25;;;22.10;56.70;;;;;;5053262;28;20021;-58
2023/10/01 07:56:49;;;;;;;15.52;11.48;;;22.10;56.70;;;;;;5052145;28;20079;-60
2023/10/01 07:59:34;;;;;;;16.77;11.30;;;22.10;57.00;;;;;;5051934;28;20041;-60
2023/10/01 08:04:57;;;;;;;13.48;10.85;;;22.10;57.70;;;;;;5052137;28;20400;-60
2023/10/01 08:07:30;;;;;;;15.25;11.50;;;22.00;58.00;;;;;;5052386;28;20029;-60
2023/10/01 08:09:58;;;;;;;13.13;10.95;;;22.00;58.40;;;;;;5052733;28;20056;-60
2023/10/01 08:15:31;;;;;;;14.48;10.93;;;21.90;59.00;;;;;;5043702;28;20033;-60
2023/10/01 08:18:19;;;;;;;12.30;10.32;;;21.90;59.20;;;;;;5053718;28;20485;-60
2023/10/01 08:20:59;;;;;;;13.80;10.27;;;21.90;59.30;;;;;;5053383;28;20039;-60
2023/10/01 08:23:33;;;;;;;13.18;10.60;;;21.80;59.60;;;;;;5053584;28;20025;-60
2023/10/01 08:26:43;;;;;;;16.73;11.65;;;21.80;60.10;;;;;;5053612;28;20048;-58
2023/10/01 08:28:55;;;;;;;12.30;9.88;;;21.80;60.60;;;;;;5053174;28;20029;-60
2023/10/01 08:31:43;;;;;;;12.63;10.35;;;21.80;60.90;;;;;;5053487;28;20071;-60
2023/10/01 08:34:22;;;;;;;12.90;11.38;;;21.80;61.10;;;;;;5053131;28;20025;-60
2023/10/01 08:36:55;;;;;;;13.75;11.30;;;21.70;61.20;;;;;;5053470;28;20025;-61
2023/10/01 08:39:34;;;;;;;14.43;11.35;;;21.80;61.50;;;;;;5053391;28;20024;-60
2023/10/01 08:42:08;;;;;;;14.85;11.50;;;21.80;61.70;;;;;;5053090;28;20064;-60
2023/10/01 08:44:51;;;;;;;14.38;12.02;;;21.90;61.90;;;;;;5053217;28;20476;-59
2023/10/01 08:47:21;;;;;;;14.50;11.27;;;21.90;62.10;;;;;;5053305;28;20079;-60
2023/10/01 08:49:51;;;;;;;18.17;12.10;;;22.00;62.20;;;;;;5053604;28;20032;-60
2023/10/01 08:52:25;;;;;;;14.20;11.57;;;22.10;62.00;;;;;;5052913;28;20029;-59
2023/10/01 08:54:54;;;;;;;16.77;11.80;;;22.20;62.00;;;;;;5053060;28;20029;-60
2023/10/01 08:57:45;;;;;;;16.58;12.15;;;22.20;61.90;;;;;;5052515;28;20025;-60
2023/10/01 09:00:20;;;;;;;13.75;12.23;;;22.30;61.70;;;;;;5053204;28;20024;-60
2023/10/01 09:03:10;;;;;;;15.70;11.65;;;22.40;61.60;;;;;;5052932;28;20053;-60
2023/10/01 09:05:36;;;;;;;19.42;12.57;;;22.40;61.70;;;;;;5052781;28;20037;-60
2023/10/01 09:08:26;;;;;;;22.17;12.77;;;22.40;61.90;;;;;;5052637;28;20021;-60
2023/10/01 09:10:56;;;;;;;17.25;12.65;;;22.40;62.00;;;;;;5052366;28;20060;-58
2023/10/01 09:13:22;;;;;;;15.73;12.25;;;22.50;62.60;;;;;;5052544;28;20083;-60
2023/10/01 09:15:55;;;;;;;17.20;12.05;;;22.50;62.80;;;;;;5052648;28;20020;-60
2023/10/01 09:18:25;;;;;;;17.05;12.63;;;22.60;63.20;;;;;;5052327;28;20031;-60
2023/10/01 09:21:06;;;;;;;14.75;13.10;;;22.60;62.60;;;;;;5052604;28;20028;-60
2023/10/01 09:23:54;;;;;;;;;;;22.60;62.70;;;;;;5052807;28;20029;-58
2023/10/01 09:26:37;;;;;;;16.95;12.93;;;22.60;62.60;;;;;;5052511;28;19943;-60
2023/10/01 09:29:13;;;;;;;16.63;14.43;;;22.60;62.30;;;;;;5052418;28;20097;-60
2023/10/01 09:31:57;;;;;;;17.80;15.63;;;22.60;62.40;;;;;;5052244;28;20037;-60
2023/10/01 09:34:31;;;;;;;19.38;15.45;;;22.70;62.40;;;;;;5052380;28;20094;-60
2023/10/01 09:37:42;;;;;;;20.05;15.98;;;22.70;62.20;;;;;;5052210;28;20048;-60
2023/10/01 09:42:57;;;;;;;19.35;16.17;;;22.70;62.40;;;;;;5051917;28;20136;-58
2023/10/01 09:45:29;;;;;;;16.30;14.60;;;22.80;62.30;;;;;;5052026;28;20021;-60
2023/10/01 09:48:30;;;;;;;20.08;14.73;;;22.80;62.30;;;;;;5051791;28;20035;-60
2023/10/01 09:51:15;;;;;;;16.40;14.65;;;22.80;62.40;;;;;;5049957;28;20041;-60
2023/10/01 09:53:56;;;;;;;16.35;13.77;;;22.80;62.00;;;;;;5051022;28;20171;-60
2023/10/01 09:56:26;;;;;;;18.95;14.02;;;22.80;62.00;;;;;;5049900;28;20424;-60
2023/10/01 09:59:08;;;;;;;16.95;13.75;;;22.80;62.20;;;;;;5048487;28;20528;-60
2023/10/01 10:01:36;;;;;;;17.33;13.10;;;22.80;62.20;;;;;;5062380;28;20032;-59
2023/10/01 10:04:04;;;;;;;14.85;13.25;;;22.80;62.00;;;;;;5047374;28;20029;-58
2023/10/01 10:06:31;;;;;;;14.35;12.80;;;22.80;62.10;;;;;;5047901;28;20025;-60
2023/10/01 10:09:06;;;;;;;17.67;13.05;;;22.80;62.10;;;;;;5047937;28;20384;-60
2023/10/01 10:11:36;;;;;;;15.32;12.85;;;22.80;61.80;;;;;;5047894;28;20084;-59
2023/10/01 10:14:36;;;;;;;15.35;13.05;;;22.80;61.90;;;;;;5049637;28;20361;-58
2023/10/01 10:17:18;;;;;;;14.95;12.45;;;22.70;61.80;;;;;;5049939;28;20056;-60
2023/10/01 10:20:24;;;;;;;15.52;13.23;;;22.70;61.70;;;;;;5049606;28;20029;-59
2023/10/01 10:23:13;;;;;;;15.75;12.90;;;22.70;61.50;;;;;;5049485;28;20040;-60
2023/10/01 10:25:40;;;;;;;14.23;12.73;;;22.60;61.60;;;;;;5049450;28;20032;-60
2023/10/01 10:28:07;;;;;;;15.75;12.88;;;22.50;61.70;;;;;;5050615;28;20017;-60
2023/10/01 10:30:33;;;;;;;14.65;12.88;;;22.50;61.90;;;;;;5051178;28;20028;-60
2023/10/01 10:33:14;;;;;;;15.10;12.40;;;22.40;62.10;;;;;;5051449;28;20021;-60
2023/10/01 10:35:49;;;;;;;13.40;12.00;;;22.40;62.00;;;;;;5051198;28;20767;-60
2023/10/01 10:38:51;;;;;;;17.92;12.82;;;22.30;61.90;;;;;;5051040;28;20576;-60
2023/10/01 10:41:19;;;;;;;15.07;12.60;;;22.30;62.20;;;;;;5051104;28;20017;-60
2023/10/01 10:44:10;;;;;;;14.85;13.23;;;22.30;62.50;;;;;;5051245;28;20017;-60
2023/10/01 10:47:00;;;;;;;13.98;12.45;;;22.30;62.20;;;;;;5051095;28;20389;-60
2023/10/01 10:49:51;;;;;;;17.10;12.95;;;22.20;62.50;;;;;;5050967;28;20025;-58
2023/10/01 10:52:32;;;;;;;;;;;22.20;62.70;;;;;;5051260;28;20066;-60
2023/10/01 10:55:16;;;;;;;14.73;11.90;;;22.10;62.90;;;;;;5051115;28;19915;-58
2023/10/01 10:57:48;;;;;;;14.27;12.52;;;22.10;63.10;;;;;;5051118;28;20037;-60
2023/10/01 11:00:24;;;;;;;17.33;12.55;;;22.10;63.70;;;;;;5051153;28;20477;-60
2023/10/01 11:02:56;;;;;;;16.42;13.23;;;22.10;64.10;;;;;;5051076;28;20505;-60
2023/10/01 11:05:29;;;;;;;14.63;12.93;;;22.10;64.40;;;;;;5051239;28;20056;-60
2023/10/01 11:07:59;;;;;;;20.60;13.70;;;22.10;64.50;;;;;;5051155;28;20113;-60
2023/10/01 11:10:44;;;;;;;18.42;13.35;;;22.10;65.00;;;;;;5050644;28;20052;-60
2023/10/01 11:13:13;;;;;;;15.43;13.20;;;22.10;65.10;;;;;;5050747;28;20068;-60
2023/10/01 11:15:42;;;;;;;14.88;13.35;;;22.10;65.50;;;;;;5050959;28;20540;-60
2023/10/01 11:18:11;;;;;;;17.42;13.52;;;22.10;66.00;;;;;;5050913;28;20078;-60
2023/10/01 11:20:45;;;;;;;17.23;13.70;;;22.10;66.30;;;;;;5051411;28;20108;-60
2023/10/01 11:23:11;;;;;;;15.75;13.15;;;22.10;66.10;;;;;;5054738;28;20039;-60
2023/10/01 11:25:40;;;;;;;15.18;13.00;;;22.10;66.50;;;;;;5054453;28;20455;-60
2023/10/01 11:28:06;;;;;;;16.70;12.52;;;22.00;66.70;;;;;;5054166;28;20025;-60
2023/10/01 11:30:44;;;;;;;14.40;12.80;;;22.10;66.80;;;;;;5052760;28;20039;-60
2023/10/01 11:33:13;;;;;;;13.95;12.63;;;22.10;67.20;;;;;;5052343;28;20029;-60
2023/10/01 11:38:34;;;;;;;12.90;11.60;;;22.00;68.30;;;;;;5052641;28;20514;-60
2023/10/01 11:41:09;;;;;;;11.13;9.93;;;22.00;69.00;;;;;;5052217;28;20024;-60
2023/10/01 11:43:59;;;;;;;12.95;9.32;;;22.00;69.20;;;;;;5052191;28;20021;-58
2023/10/01 11:49:34;;;;;;;11.93;9.23;;;22.00;70.10;;;;;;5052478;28;20591;-58
2023/10/01 11:52:21;;;;;;;13.55;9.13;;;22.00;70.20;;;;;;5054157;28;20476;-61
2023/10/01 11:54:53;;;;;;;11.80;9.80;;;22.00;71.10;;;;;;5054311;28;20024;-61
2023/10/01 11:57:23;;;;;;;10.68;9.50;;;22.10;72.00;;;;;;5054112;28;20032;-58
2023/10/01 11:59:56;;;;;;;11.83;9.90;;;22.00;71.60;;;;;;5054147;28;20017;-56
2023/10/01 12:02:26;;;;;;;11.10;9.85;;;22.00;71.90;;;;;;5053840;28;20024;-58
2023/10/01 12:04:57;;;;;;;14.10;9.82;;;22.00;72.10;;;;;;5054101;28;20032;-58
2023/10/01 12:07:26;;;;;;;15.93;10.13;;;22.00;72.10;;;;;;5053606;28;20108;-58
2023/10/01 12:09:54;;;;;;;14.18;10.60;;;21.90;72.10;;;;;;5053751;28;20048;-58
2023/10/01 12:12:28;;;;;;;12.20;10.35;;;21.90;72.20;;;;;;5054002;28;20040;-58
2023/10/01 12:15:33;;;;;;;12.05;9.95;;;21.80;72.10;;;;;;5052762;28;20029;-58
2023/10/01 12:17:46;;;;;;;15.10;9.65;;;21.80;72.40;;;;;;5053365;28;20496;-58
2023/10/01 12:20:22;;;;;;;11.70;10.50;;;21.70;72.40;;;;;;5053644;28;20057;-58
2023/10/01 12:23:10;;;;;;;12.70;10.27;;;21.70;73.00;;;;;;5053379;28;20059;-57
2023/10/01 12:28:30;;;;;;;10.15;9.15;;;21.60;73.50;;;;;;5051686;28;20419;-58
2023/10/01 12:30:58;;;;;;;11.25;9.80;;;21.50;73.50;;;;;;5051498;28;20025;-57
2023/10/01 12:33:46;;;;;;;11.65;10.10;;;21.50;74.10;;;;;;5049293;28;20083;-57
2023/10/01 12:41:56;;;;;;;16.70;9.35;;;21.30;74.50;;;;;;5050884;28;20093;-58
2023/10/01 12:44:30;;;;;;;13.48;9.40;;;21.30;74.50;;;;;;5051859;28;20473;-59
2023/10/01 12:47:00;;;;;;;13.80;10.15;;;21.30;74.80;;;;;;5052967;28;20481;-58
2023/10/01 12:49:58;;;;;;;10.83;9.17;;;21.20;75.40;;;;;;5052334;28;20033;-58
2023/10/01 12:52:30;;;;;;;12.98;9.45;;;21.20;75.10;;;;;;5051049;28;20037;-58
2023/10/01 12:55:00;;;;;;;12.75;9.05;;;21.10;74.90;;;;;;5051052;28;20081;-57
2023/10/01 12:57:33;;;;;;;9.77;8.65;;;21.10;75.30;;;;;;5050574;28;20021;-56
2023/10/01 13:02:43;;;;;;;12.00;8.50;;;21.00;74.60;;;;;;5051132;28;20043;-55
2023/10/01 13:08:06;;;;;;;11.13;7.57;;;20.90;74.60;;;;;;5052102;28;20045;-58
2023/10/01 13:10:37;;;;;;;9.60;6.45;;;20.90;74.70;;;;;;5052429;28;20512;-59
2023/10/01 13:13:05;;;;;;;9.27;6.20;;;20.80;74.60;;;;;;5052656;28;20036;-59
2023/10/01 13:15:36;;;;;;;8.38;6.25;;;20.70;74.80;;;;;;5052628;28;20047;-58
2023/10/01 13:18:11;;;;;;;12.95;6.40;;;20.70;75.10;;;;;;5052384;28;20040;-58
2023/10/01 13:23:24;;;;;;;8.25;6.40;;;20.60;75.10;;;;;;5052175;28;20028;-59
2023/10/01 13:26:05;;;;;;;7.05;5.85;;;20.50;75.10;;;;;;5051354;28;20036;-58
2023/10/01 13:28:45;;;;;;;6.70;6.00;;;20.50;75.20;;;;;;5051286;28;20408;-59
2023/10/01 14:09:48;;;;;;;9.27;5.25;;;19.90;75.90;;;;;;5051391;28;20384;-59
2023/10/01 14:15:21;;;;;;;5.78;4.85;;;19.80;75.80;;;;;;5051712;28;20053;-58
2023/10/01 14:18:08;;;;;;;8.02;6.30;;;19.70;76.10;;;;;;5050512;28;20052;-59
2023/10/01 14:23:22;;;;;;;8.70;6.07;;;19.70;76.80;;;;;;5051524;28;20031;-59
2023/10/01 14:25:58;;;;;;;7.97;6.65;;;19.70;76.50;;;;;;5051523;28;20044;-59
2023/10/01 14:28:25;;;;;;;8.70;6.30;;;19.70;76.40;;;;;;5051076;28;20033;-59
2023/10/01 14:30:58;;;;;;;6.70;5.35;;;19.70;76.60;;;;;;5051824;28;20025;-59
2023/10/01 14:33:26;;;;;;;7.35;5.93;;;19.70;76.80;;;;;;5051362;28;20040;-59
2023/10/01 14:35:54;;;;;;;12.10;6.20;;;19.70;76.90;;;;;;5051339;28;20024;-59
2023/10/01 14:38:26;;;;;;;9.40;6.68;;;19.70;77.10;;;;;;5051410;28;20017;-59
2023/10/01 14:40:56;;;;;;;8.20;5.75;;;19.70;77.40;;;;;;5051298;28;20021;-61
2023/10/01 14:43:27;;;;;;;8.10;6.07;;;19.70;77.00;;;;;;5051468;28;20032;-59